Time;durP1;ratioP1;P1;durP2;ratioP2;P2;SDS_P1;SDS_P2;PMS_P1;PMS_P2;Temp;Humidity;BMP_temperature;BMP_pressure;BME280_temperature;BME280_humidity;BME280_pressure;Samples;Min_cycle;Max_cycle;Signal;HPM_P1;HPM_P2
2024/01/30 00:00:52;;;;;;;10.20;8.57;;;;;;;2.02;100.00;101677.56;4930340;29;20219;-76
2024/01/30 00:03:18;;;;;;;8.43;7.63;;;;;;;2.00;100.00;101674.03;4913733;29;20282;-76
2024/01/30 00:05:43;;;;;;;8.53;7.23;;;;;;;1.95;100.00;101674.72;4927384;29;20217;-77
2024/01/30 00:08:09;;;;;;;8.90;8.07;;;;;;;1.91;100.00;101671.91;4925191;29;20251;-77
2024/01/30 00:10:34;;;;;;;10.33;9.03;;;;;;;1.87;100.00;101686.22;4929142;29;20215;-77
2024/01/30 00:12:59;;;;;;;9.27;8.30;;;;;;;1.84;100.00;101678.41;4928974;29;20812;-77
2024/01/30 00:15:24;;;;;;;9.23;8.33;;;;;;;1.81;100.00;101678.28;4928673;29;20653;-77
2024/01/30 00:17:52;;;;;;;10.27;8.43;;;;;;;1.81;100.00;101678.28;4929512;29;20187;-77
2024/01/30 00:20:17;;;;;;;9.33;8.33;;;;;;;1.80;100.00;101679.94;4922363;29;20218;-76
2024/01/30 00:22:43;;;;;;;9.30;8.40;;;;;;;1.82;100.00;101682.53;4929454;29;20191;-76
2024/01/30 00:25:08;;;;;;;11.70;9.20;;;;;;;1.82;100.00;101678.34;4912239;29;20416;-76
2024/01/30 00:27:33;;;;;;;9.50;8.57;;;;;;;1.84;100.00;101683.50;4928533;29;20621;-77
2024/01/30 00:29:59;;;;;;;11.37;9.57;;;;;;;1.83;100.00;101690.31;4929862;29;20247;-76
2024/01/30 00:32:24;;;;;;;12.37;10.47;;;;;;;1.84;100.00;101691.16;4929728;29;20194;-76
2024/01/30 00:34:49;;;;;;;12.67;10.87;;;;;;;1.85;100.00;101682.72;4929395;29;20212;-76
2024/01/30 00:37:15;;;;;;;11.77;10.17;;;;;;;1.86;100.00;101691.25;4924858;29;20191;-75
2024/01/30 00:39:40;;;;;;;11.83;10.57;;;;;;;1.84;100.00;101691.16;4927476;29;20350;-76
2024/01/30 00:42:05;;;;;;;13.27;10.17;;;;;;;1.84;100.00;101693.72;4911308;29;20780;-75
2024/01/30 00:44:31;;;;;;;11.20;10.03;;;;;;;1.83;100.00;101695.41;4929231;29;20229;-76
2024/01/30 00:46:56;;;;;;;10.90;8.93;;;;;;;1.81;100.00;101699.56;4928931;29;20194;-76
2024/01/30 00:49:21;;;;;;;10.53;9.43;;;;;;;1.78;100.00;101685.78;4926238;29;20637;-75
2024/01/30 00:51:46;;;;;;;9.77;8.77;;;;;;;1.76;100.00;101692.47;4928206;29;20191;-76
2024/01/30 00:54:12;;;;;;;9.43;8.43;;;;;;;1.74;100.00;101688.97;4910843;29;20188;-76
2024/01/30 00:56:37;;;;;;;10.87;9.00;;;;;;;1.73;100.00;101687.22;4928679;29;20688;-76
2024/01/30 00:59:02;;;;;;;12.20;9.03;;;;;;;1.72;100.00;101691.44;4929243;29;20592;-77
2024/01/30 01:01:28;;;;;;;11.13;8.93;;;;;;;1.73;100.00;101693.22;4927400;29;20327;-76
2024/01/30 01:03:53;;;;;;;10.57;8.97;;;;;;;1.72;100.00;101688.91;4928286;29;20216;-77
2024/01/30 01:06:19;;;;;;;11.03;9.00;;;;;;;1.73;100.00;101693.22;4925864;29;20262;-76
2024/01/30 01:08:44;;;;;;;10.13;9.03;;;;;;;1.67;100.00;101691.19;4926276;29;20232;-77
2024/01/30 01:11:10;;;;;;;9.60;8.60;;;;;;;1.68;100.00;101692.94;4929391;29;20180;-76
2024/01/30 01:13:35;;;;;;;11.30;9.70;;;;;;;1.71;100.00;101691.34;4924260;29;20197;-77
2024/01/30 01:16:00;;;;;;;11.17;9.97;;;;;;;1.72;100.00;101693.13;4927817;29;20840;-77
2024/01/30 01:18:27;;;;;;;12.77;11.30;;;;;;;1.73;100.00;101688.09;4928614;29;20188;-76
2024/01/30 01:20:52;;;;;;;12.47;11.20;;;;;;;1.75;100.00;101689.03;4925346;29;20211;-77
2024/01/30 01:23:17;;;;;;;13.07;10.33;;;;;;;1.76;100.00;101688.22;4924256;29;20198;-77
2024/01/30 01:25:43;;;;;;;12.00;10.80;;;;;;;1.77;100.00;101684.88;4926909;29;20231;-77
2024/01/30 01:28:08;;;;;;;10.93;9.83;;;;;;;1.83;100.00;101684.31;4924568;29;20581;-76
2024/01/30 01:30:33;;;;;;;12.53;10.80;;;;;;;1.83;100.00;101681.75;4928420;29;20698;-77
2024/01/30 01:33:02;;;;;;;11.67;10.47;;;;;;;1.85;100.00;101679.28;4929348;29;20257;-76
2024/01/30 01:35:27;;;;;;;11.00;9.90;;;;;;;1.84;100.00;101678.41;4925883;29;20192;-77
2024/01/30 01:37:57;;;;;;;10.00;9.00;;;;;;;1.83;100.00;101677.53;4926325;29;20630;-77
2024/01/30 01:40:24;;;;;;;10.07;9.07;;;;;;;1.85;100.00;101675.03;4929503;29;20218;-77
2024/01/30 01:42:52;;;;;;;9.67;8.70;;;;;;;1.81;100.00;101674.03;4926441;29;20188;-76
2024/01/30 01:45:18;;;;;;;11.70;9.93;;;;;;;1.79;100.00;101672.22;4923073;29;20249;-76
2024/01/30 01:47:45;;;;;;;10.20;9.03;;;;;;;1.78;100.00;101666.22;4925172;29;20286;-76
2024/01/30 01:50:12;;;;;;;9.93;8.90;;;;;;;1.79;100.00;101665.41;4926027;29;20218;-76
2024/01/30 01:52:40;;;;;;;10.40;9.17;;;;;;;1.78;100.00;101663.66;4928366;29;20187;-75
2024/01/30 01:55:06;;;;;;;9.93;8.83;;;;;;;1.76;100.00;101655.03;4929534;29;20187;-76
2024/01/30 01:57:31;;;;;;;10.73;9.07;;;;;;;1.73;100.00;101664.25;4928177;29;20188;-76
2024/01/30 01:59:57;;;;;;;11.30;9.03;;;;;;;1.71;100.00;101664.19;4929041;29;20936;-76
2024/01/30 02:02:24;;;;;;;10.30;9.30;;;;;;;1.66;100.00;101657.97;4929710;29;20206;-76
2024/01/30 02:04:50;;;;;;;9.83;8.83;;;;;;;1.63;100.00;101657.78;4908760;29;20276;-76
2024/01/30 02:07:15;;;;;;;12.90;9.23;;;;;;;1.58;100.00;101660.13;4907471;29;20219;-76
2024/01/30 02:09:40;;;;;;;12.23;10.87;;;;;;;1.53;100.00;101661.56;4923912;29;20211;-77
2024/01/30 02:12:06;;;;;;;12.13;10.57;;;;;;;1.45;100.00;101667.97;4926807;29;20215;-77
2024/01/30 02:14:31;;;;;;;12.00;10.33;;;;;;;1.37;100.00;101671.00;4925857;29;20195;-75
2024/01/30 02:16:57;;;;;;;11.30;9.63;;;;;;;1.35;100.00;101667.50;4923814;29;20812;-77
2024/01/30 02:19:22;;;;;;;10.87;9.77;;;;;;;1.33;100.00;101665.66;4924429;29;20225;-76
2024/01/30 02:21:48;;;;;;;10.40;9.40;;;;;;;1.27;100.00;101671.31;4924795;29;20190;-76
2024/01/30 02:24:13;;;;;;;10.07;9.07;;;;;;;1.24;100.00;101667.75;4937736;29;20230;-77
2024/01/30 02:26:38;;;;;;;10.17;9.00;;;;;;;1.21;100.00;101674.44;4924848;29;20274;-76
2024/01/30 02:29:03;;;;;;;9.57;8.67;;;;;;;1.20;100.00;101665.03;4929152;29;20207;-76
2024/01/30 02:31:29;;;;;;;10.87;9.77;;;;;;;1.21;100.00;101674.44;4928343;29;20272;-77
2024/01/30 02:33:54;;;;;;;12.80;10.20;;;;;;;1.22;100.00;101667.66;4926485;29;20748;-76
2024/01/30 02:36:19;;;;;;;13.13;10.43;;;;;;;1.20;100.00;101667.59;4923139;29;20191;-77
2024/01/30 02:38:46;;;;;;;11.43;10.30;;;;;;;1.20;100.00;101670.13;4928311;29;20208;-77
2024/01/30 02:41:11;;;;;;;9.70;8.70;;;;;;;1.17;100.00;101664.88;4926759;29;20935;-77
2024/01/30 02:43:36;;;;;;;9.77;8.77;;;;;;;1.16;100.00;101672.44;4926403;29;20223;-77
2024/01/30 02:46:02;;;;;;;8.37;7.57;;;;;;;1.16;100.00;101672.44;4911307;29;20199;-76
2024/01/30 02:48:27;;;;;;;9.30;8.30;;;;;;;1.17;100.00;101675.06;4927782;29;20268;-76
2024/01/30 02:50:52;;;;;;;9.67;8.50;;;;;;;1.17;100.00;101666.56;4924857;29;20250;-76
2024/01/30 02:53:18;;;;;;;9.30;8.37;;;;;;;1.15;100.00;101670.69;4924799;29;20702;-76
2024/01/30 02:55:43;;;;;;;11.57;10.37;;;;;;;1.11;100.00;101671.31;4925691;29;20191;-76
2024/01/30 02:58:08;;;;;;;10.97;9.67;;;;;;;1.12;100.00;101676.53;4926761;29;20202;-77
2024/01/30 03:00:34;;;;;;;9.83;8.83;;;;;;;1.03;100.00;101669.28;4924245;29;20214;-77
2024/01/30 03:02:59;;;;;;;10.33;9.27;;;;;;;1.00;100.00;101671.66;4921149;29;20199;-76
2024/01/30 03:05:25;;;;;;;10.67;8.77;;;;;;;0.97;100.00;101665.53;4924718;29;20252;-77
2024/01/30 03:07:50;;;;;;;9.00;8.10;;;;;;;0.93;100.00;101676.34;4925574;29;20196;-76
2024/01/30 03:10:15;;;;;;;9.97;8.97;;;;;;;0.91;100.00;101673.69;4927472;29;20215;-75
2024/01/30 03:12:40;;;;;;;11.07;8.77;;;;;;;0.85;100.00;101671.72;4921385;29;20199;-76
2024/01/30 03:15:06;;;;;;;9.97;8.97;;;;;;;0.84;100.00;101671.63;4910272;29;20275;-77
2024/01/30 03:17:32;;;;;;;10.13;9.13;;;;;;;0.84;100.00;101671.63;4920638;29;20245;-77
2024/01/30 03:19:57;;;;;;;11.50;9.20;;;;;;;0.85;100.00;101673.41;4924567;29;20270;-76
2024/01/30 03:22:22;;;;;;;12.20;9.73;;;;;;;0.86;100.00;101673.47;4927864;29;20206;-76
2024/01/30 03:24:48;;;;;;;10.80;9.70;;;;;;;0.85;100.00;101668.28;4927184;29;20215;-76
2024/01/30 03:27:13;;;;;;;10.30;9.10;;;;;;;0.87;100.00;101674.34;4923823;29;20190;-77
2024/01/30 03:29:38;;;;;;;11.93;9.63;;;;;;;0.88;100.00;101666.78;4913180;29;20214;-76
2024/01/30 03:32:04;;;;;;;9.63;8.73;;;;;;;0.94;100.00;101673.88;4927047;29;20226;-77
2024/01/30 03:34:30;;;;;;;8.87;7.97;;;;;;;0.97;100.00;101674.03;4926482;29;20232;-77
2024/01/30 03:36:55;;;;;;;9.07;8.03;;;;;;;0.99;100.00;101669.91;4928265;29;20935;-76
2024/01/30 03:39:20;;;;;;;8.50;7.10;;;;;;;1.03;100.00;101671.81;4926762;29;20219;-77
2024/01/30 03:41:46;;;;;;;8.53;7.07;;;;;;;1.06;100.00;101671.09;4926366;29;20196;-77
2024/01/30 03:44:11;;;;;;;7.77;6.97;;;;;;;1.07;100.00;101675.41;4909157;29;20241;-75
2024/01/30 03:46:36;;;;;;;7.67;6.87;;;;;;;1.05;100.00;101669.34;4926038;29;20195;-75
2024/01/30 03:49:02;;;;;;;7.23;6.53;;;;;;;1.03;100.00;101673.47;4925165;29;20245;-76
2024/01/30 03:51:27;;;;;;;8.10;7.30;;;;;;;1.04;100.00;101668.47;4911517;29;21023;-74
2024/01/30 03:53:52;;;;;;;7.80;6.97;;;;;;;0.97;100.00;101668.94;4928342;29;20198;-76
2024/01/30 03:56:18;;;;;;;8.37;7.47;;;;;;;0.94;100.00;101668.78;4928439;29;20207;-75
2024/01/30 03:58:43;;;;;;;8.30;7.50;;;;;;;0.92;100.00;101670.34;4928542;29;20195;-75
2024/01/30 04:01:13;;;;;;;8.73;7.93;;;;;;;0.87;100.00;101664.16;4930371;29;20199;-75
2024/01/30 04:03:39;;;;;;;7.93;7.00;;;;;;;0.85;100.00;101669.16;4930586;29;20228;-75
2024/01/30 04:06:04;;;;;;;8.80;7.90;;;;;;;0.86;100.00;101677.69;4909281;29;20201;-77
2024/01/30 04:08:30;;;;;;;9.13;8.10;;;;;;;0.78;100.00;101672.19;4928998;29;20660;-77
2024/01/30 04:10:55;;;;;;;8.13;7.33;;;;;;;0.81;100.00;101679.13;4929286;29;21025;-75
2024/01/30 04:13:20;;;;;;;8.60;7.77;;;;;;;0.81;100.00;101679.13;4928599;29;20197;-75
2024/01/30 04:15:46;;;;;;;10.13;7.97;;;;;;;0.79;100.00;101666.31;4929978;29;20197;-76
2024/01/30 04:18:11;;;;;;;8.97;7.50;;;;;;;0.76;100.00;101667.00;4916249;29;20191;-76
2024/01/30 04:20:36;;;;;;;9.20;8.07;;;;;;;0.74;100.00;101671.16;4929089;29;20222;-77
2024/01/30 04:23:02;;;;;;;9.60;7.40;;;;;;;0.73;100.00;101671.06;4929913;29;20191;-76
2024/01/30 04:25:27;;;;;;;7.57;6.77;;;;;;;0.66;100.00;101674.94;4929820;29;20244;-75
2024/01/30 04:27:52;;;;;;;7.17;6.47;;;;;;;0.67;100.00;101668.19;4914034;29;20192;-77
2024/01/30 04:30:18;;;;;;;8.70;7.13;;;;;;;0.68;100.00;101668.28;4928356;29;20210;-76
2024/01/30 04:32:43;;;;;;;7.67;6.97;;;;;;;0.69;100.00;101670.03;4929324;29;20700;-75
2024/01/30 04:35:09;;;;;;;8.07;7.37;;;;;;;0.72;100.00;101669.31;4930524;29;20187;-76
2024/01/30 04:37:34;;;;;;;7.80;7.10;;;;;;;0.75;100.00;101677.13;4930392;29;20198;-73
2024/01/30 04:39:59;;;;;;;9.00;8.10;;;;;;;0.81;100.00;101669.81;4929666;29;20244;-76
2024/01/30 04:42:24;;;;;;;8.33;7.50;;;;;;;0.80;100.00;101672.25;4927083;29;20230;-76
2024/01/30 04:44:50;;;;;;;9.70;8.30;;;;;;;0.83;100.00;101670.75;4929922;29;20810;-77
2024/01/30 04:47:16;;;;;;;8.73;7.70;;;;;;;0.80;100.00;101665.50;4926723;29;20301;-76
2024/01/30 04:49:41;;;;;;;8.97;8.07;;;;;;;0.83;100.00;101675.84;4929087;29;20214;-76
2024/01/30 04:52:07;;;;;;;7.90;7.10;;;;;;;0.84;100.00;101666.53;4929200;29;20187;-75
2024/01/30 04:54:33;;;;;;;7.77;6.97;;;;;;;0.85;100.00;101663.19;4929315;29;20221;-76
2024/01/30 04:56:58;;;;;;;7.70;7.00;;;;;;;0.88;100.00;101665.91;4926370;29;20196;-76
2024/01/30 04:59:24;;;;;;;7.33;6.57;;;;;;;0.89;100.00;101662.56;4924156;29;20208;-77
2024/01/30 05:01:49;;;;;;;6.97;6.27;;;;;;;0.91;100.00;101666.06;4928795;29;20195;-75
2024/01/30 05:04:14;;;;;;;8.07;7.30;;;;;;;0.93;100.00;101668.69;4929815;29;20586;-78
2024/01/30 05:06:40;;;;;;;7.53;6.73;;;;;;;0.93;100.00;101676.34;4930413;29;20290;-75
2024/01/30 05:09:05;;;;;;;6.93;6.20;;;;;;;0.94;100.00;101670.47;4927804;29;20298;-77
2024/01/30 05:11:30;;;;;;;6.40;5.77;;;;;;;0.95;100.00;101675.63;4927670;29;20209;-77
2024/01/30 05:13:56;;;;;;;6.43;5.83;;;;;;;0.95;100.00;101677.31;4927000;29;20205;-79
2024/01/30 05:16:21;;;;;;;6.97;6.27;;;;;;;0.95;100.00;101675.63;4928815;29;20218;-77
2024/01/30 05:18:47;;;;;;;7.17;6.47;;;;;;;0.94;100.00;101678.09;4926991;29;20273;-75
2024/01/30 05:21:12;;;;;;;8.53;6.83;;;;;;;0.89;100.00;101675.31;4925846;29;20242;-75
2024/01/30 05:23:37;;;;;;;6.97;6.37;;;;;;;0.86;100.00;101681.09;4929201;29;20281;-75
2024/01/30 05:26:03;;;;;;;7.67;6.67;;;;;;;0.86;100.00;101682.78;4927200;29;20195;-75
2024/01/30 05:28:29;;;;;;;8.93;7.10;;;;;;;0.85;100.00;101681.03;4930353;29;20192;-75
2024/01/30 05:30:55;;;;;;;7.63;6.73;;;;;;;0.82;100.00;101683.41;4925767;29;20689;-76
2024/01/30 05:33:21;;;;;;;7.57;6.10;;;;;;;0.80;100.00;101679.91;4926835;29;20231;-76
2024/01/30 05:35:46;;;;;;;6.70;6.10;;;;;;;0.74;100.00;101689.00;4931334;29;20195;-76
2024/01/30 05:38:12;;;;;;;7.83;7.03;;;;;;;0.75;100.00;101682.22;4933486;29;20255;-76
2024/01/30 05:40:37;;;;;;;7.43;6.63;;;;;;;0.76;100.00;101686.53;4926340;29;20215;-76
2024/01/30 05:43:03;;;;;;;7.60;5.60;;;;;;;0.78;100.00;101692.56;4925644;29;20226;-76
2024/01/30 05:45:28;;;;;;;6.60;5.90;;;;;;;0.81;100.00;101692.75;4924977;29;20227;-76
2024/01/30 05:47:54;;;;;;;5.87;5.27;;;;;;;0.88;100.00;101688.84;4927624;29;20258;-75
2024/01/30 05:50:20;;;;;;;5.63;4.80;;;;;;;0.94;100.00;101690.84;4926743;29;20222;-75
2024/01/30 05:52:45;;;;;;;6.17;5.43;;;;;;;0.95;100.00;101696.03;4923639;29;20191;-76
2024/01/30 05:55:12;;;;;;;6.47;5.80;;;;;;;0.92;100.00;101700.94;4924476;29;20186;-77
2024/01/30 05:57:37;;;;;;;6.50;5.80;;;;;;;0.89;100.00;101703.34;4927732;29;20192;-76
2024/01/30 06:00:04;;;;;;;7.57;6.50;;;;;;;0.85;100.00;101702.28;4926890;29;20217;-73
2024/01/30 06:02:29;;;;;;;7.80;6.97;;;;;;;0.82;100.00;101702.16;4923937;29;20226;-76
2024/01/30 06:04:54;;;;;;;8.83;7.43;;;;;;;0.79;100.00;101708.72;4927057;29;20305;-75
2024/01/30 06:07:20;;;;;;;8.53;6.97;;;;;;;0.73;100.00;101705.09;4927665;29;20617;-75
2024/01/30 06:09:46;;;;;;;7.50;6.80;;;;;;;0.68;100.00;101709.03;4925291;29;20287;-75
2024/01/30 06:12:12;;;;;;;6.90;6.20;;;;;;;0.65;100.00;101698.69;4926516;29;20231;-74
2024/01/30 06:14:37;;;;;;;6.97;6.27;;;;;;;0.65;100.00;101708.00;4920277;29;20664;-76
2024/01/30 06:17:03;;;;;;;6.60;5.97;;;;;;;0.60;100.00;101697.56;4925510;29;20195;-75
2024/01/30 06:19:28;;;;;;;6.53;5.83;;;;;;;0.56;100.00;101693.09;4931313;29;20662;-74
2024/01/30 06:21:53;;;;;;;6.30;5.70;;;;;;;0.58;100.00;101697.47;4929027;29;20203;-75
2024/01/30 06:24:18;;;;;;;6.17;5.57;;;;;;;0.61;100.00;101699.28;4929290;29;20290;-74
2024/01/30 06:26:44;;;;;;;6.50;5.80;;;;;;;0.62;100.00;101693.41;4929887;29;20187;-74
2024/01/30 06:29:09;;;;;;;6.70;6.07;;;;;;;0.64;100.00;101691.81;4924937;29;20677;-76
2024/01/30 06:31:43;;;;;;;7.63;6.93;;;;;;;0.66;100.00;101690.25;4927070;29;20269;-74
2024/01/30 06:34:09;;;;;;;7.43;6.63;;;;;;;0.65;100.00;101696.13;4930003;29;20194;-75
2024/01/30 06:36:35;;;;;;;7.23;6.53;;;;;;;0.64;100.00;101696.91;4926947;29;20331;-74
2024/01/30 06:39:01;;;;;;;8.13;7.30;;;;;;;0.64;100.00;101690.97;4926942;29;20968;-76
2024/01/30 06:41:27;;;;;;;9.23;7.27;;;;;;;0.65;100.00;101691.03;4929097;29;20204;-75
2024/01/30 06:43:52;;;;;;;7.40;6.50;;;;;;;0.67;100.00;101693.69;4927362;29;20211;-75
2024/01/30 06:46:17;;;;;;;9.53;8.50;;;;;;;0.68;100.00;101693.75;4914507;29;20587;-75
2024/01/30 06:48:44;;;;;;;8.47;7.23;;;;;;;0.67;100.00;101688.59;4927659;29;20244;-75
2024/01/30 06:51:10;;;;;;;9.50;8.50;;;;;;;0.69;100.00;101694.63;4926859;29;20281;-76
2024/01/30 06:53:35;;;;;;;10.27;8.80;;;;;;;0.70;100.00;101696.38;4931347;29;21702;-75
2024/01/30 06:56:01;;;;;;;9.73;8.03;;;;;;;0.70;100.00;101693.81;4927621;29;20202;-74
2024/01/30 06:58:26;;;;;;;8.60;7.70;;;;;;;0.68;100.00;101691.19;4925798;29;20205;-75
2024/01/30 07:00:52;;;;;;;9.33;8.27;;;;;;;0.67;100.00;101697.09;4927630;29;20215;-76
2024/01/30 07:03:17;;;;;;;9.43;7.10;;;;;;;0.66;100.00;101697.88;4914872;29;20203;-74
2024/01/30 07:05:43;;;;;;;10.73;7.53;;;;;;;0.66;100.00;101702.13;4928510;29;20226;-76
2024/01/30 07:08:08;;;;;;;6.87;6.17;;;;;;;0.66;100.00;101697.03;4926980;29;20667;-75
2024/01/30 07:10:33;;;;;;;7.80;6.27;;;;;;;0.62;100.00;101700.19;4923295;29;20217;-76
2024/01/30 07:13:00;;;;;;;7.10;6.40;;;;;;;0.59;100.00;101706.88;4910378;29;20275;-75
2024/01/30 07:15:26;;;;;;;7.00;6.30;;;;;;;0.58;100.00;101706.78;4924144;29;20187;-76
2024/01/30 07:17:51;;;;;;;8.67;6.13;;;;;;;0.57;100.00;101710.13;4927340;29;20564;-75
2024/01/30 07:20:17;;;;;;;6.67;5.63;;;;;;;0.56;100.00;101706.69;4929379;29;20231;-75
2024/01/30 07:22:43;;;;;;;7.50;6.57;;;;;;;0.64;100.00;101713.88;4928542;29;20226;-75
2024/01/30 07:25:09;;;;;;;5.90;5.30;;;;;;;0.67;100.00;101719.16;4928753;29;20757;-75
2024/01/30 07:27:34;;;;;;;9.13;6.20;;;;;;;0.70;100.00;101710.00;4928455;29;20183;-76
2024/01/30 07:29:59;;;;;;;10.03;6.60;;;;;;;0.76;100.00;101717.09;4928022;29;20262;-74
2024/01/30 07:32:25;;;;;;;8.50;6.30;;;;;;;0.81;100.00;101723.34;4923275;29;20195;-75
2024/01/30 07:34:50;;;;;;;6.33;5.73;;;;;;;0.88;100.00;101724.53;4925626;29;20271;-75
2024/01/30 07:37:15;;;;;;;6.23;5.63;;;;;;;0.95;100.00;101736.81;4925250;29;20229;-76
2024/01/30 07:39:42;;;;;;;7.23;6.53;;;;;;;1.02;100.00;101717.59;4929562;29;20709;-76
2024/01/30 07:42:08;;;;;;;6.40;5.60;;;;;;;1.11;100.00;101732.53;4930536;29;20245;-75
2024/01/30 07:44:33;;;;;;;5.80;5.30;;;;;;;1.21;100.00;101728.00;4929894;29;20207;-76
2024/01/30 07:46:59;;;;;;;5.30;4.80;;;;;;;1.27;100.00;101729.13;4930306;29;20306;-75
2024/01/30 07:49:25;;;;;;;7.00;5.57;;;;;;;1.37;100.00;101726.25;4930134;29;20568;-75
2024/01/30 07:51:50;;;;;;;5.77;4.87;;;;;;;1.51;100.00;101724.41;4929545;29;20333;-77
2024/01/30 07:54:15;;;;;;;5.73;5.13;;;;;;;1.59;100.00;101727.38;4928399;29;20666;-76
2024/01/30 07:56:41;;;;;;;6.10;5.53;;;;;;;1.66;100.00;101726.88;4930026;29;20200;-77
2024/01/30 07:59:10;;;;;;;5.57;5.07;;;;;;;1.77;100.00;101728.28;4929962;29;20270;-75
2024/01/30 08:01:35;;;;;;;5.80;5.20;;;;;;;1.86;100.00;101727.84;4912067;29;20195;-75
2024/01/30 08:04:00;;;;;;;4.87;4.37;;;;;;;1.96;100.00;101732.66;4932226;29;20274;-75
2024/01/30 08:06:25;;;;;;;4.90;4.43;;;;;;;2.05;100.00;101731.31;4930362;29;20783;-74
2024/01/30 08:08:53;;;;;;;5.83;4.87;;;;;;;2.12;100.00;101729.16;4917936;29;20662;-75
2024/01/30 08:11:20;;;;;;;6.00;5.07;;;;;;;2.20;100.00;101736.28;4910904;29;20278;-74
2024/01/30 08:13:45;;;;;;;7.17;5.40;;;;;;;2.31;100.00;101740.28;4911100;29;20725;-75
2024/01/30 08:16:10;;;;;;;6.50;5.90;;;;;;;2.42;100.00;101744.22;4931028;29;20278;-76
2024/01/30 08:18:35;;;;;;;6.03;5.43;;;;;;;2.49;100.00;101737.72;4930721;29;20238;-75
2024/01/30 08:21:01;;;;;;;6.90;6.00;;;;;;;2.56;100.00;101747.44;4932775;29;20207;-75
2024/01/30 08:23:26;;;;;;;6.37;5.77;;;;;;;2.65;100.00;101746.09;4930393;29;20196;-76
2024/01/30 08:25:51;;;;;;;6.97;5.50;;;;;;;2.74;100.00;101744.84;4923969;29;20868;-75
2024/01/30 08:28:17;;;;;;;6.40;5.80;;;;;;;2.86;100.00;101746.22;4929742;29;20230;-75
2024/01/30 08:30:42;;;;;;;6.83;5.40;;;;;;;2.99;100.00;101751.09;4928461;29;20219;-75
2024/01/30 08:33:07;;;;;;;7.60;6.30;;;;;;;3.13;100.00;101745.72;4915954;29;20666;-74
2024/01/30 08:35:33;;;;;;;7.93;6.67;;;;;;;3.25;100.00;101753.97;4913315;29;20204;-75
2024/01/30 08:37:59;;;;;;;7.13;6.43;;;;;;;3.37;100.00;101756.19;4926898;29;20195;-76
2024/01/30 08:40:24;;;;;;;6.10;5.50;;;;;;;3.47;100.00;101755.81;4933547;29;20211;-75
2024/01/30 08:42:49;;;;;;;7.47;5.20;;;;;;;3.55;100.00;101758.69;4934001;29;20231;-74
2024/01/30 08:45:15;;;;;;;7.10;6.30;;;;;;;3.63;100.00;101753.91;4940772;29;20215;-76
2024/01/30 08:47:40;;;;;;;9.27;5.87;;;;;;;3.70;100.00;101761.03;4940065;29;20275;-74
2024/01/30 08:50:06;;;;;;;6.10;5.50;;;;;;;3.76;100.00;101768.97;4935029;29;20215;-74
2024/01/30 08:52:32;;;;;;;8.10;5.77;;;;;;;3.84;100.00;101763.31;4931239;29;20212;-74
2024/01/30 08:54:58;;;;;;;5.60;5.10;;;;;;;3.88;100.00;101758.38;4930251;29;20199;-76
2024/01/30 08:57:23;;;;;;;8.00;6.17;;;;;;;3.93;100.00;101759.44;4928775;29;20847;-76
2024/01/30 08:59:48;;;;;;;6.87;6.27;;;;;;;4.00;100.00;101757.16;4932136;29;20251;-75
2024/01/30 09:02:16;;;;;;;6.57;5.87;;;;;;;4.05;100.00;101756.53;4930263;29;20197;-75
2024/01/30 09:04:41;;;;;;;7.27;6.40;;;;;;;4.13;100.00;101754.28;4930642;29;20251;-77
2024/01/30 09:07:09;;;;;;;6.47;5.87;;;;;;;4.21;100.00;101752.91;4931228;29;20231;-76
2024/01/30 09:09:34;;;;;;;6.57;5.87;;;;;;;4.33;100.00;101754.19;4929594;29;20647;-75
2024/01/30 09:12:04;;;;;;;6.30;5.70;;;;;;;4.42;100.00;101746.91;4929454;29;20259;-75
2024/01/30 09:14:29;;;;;;;6.60;6.00;;;;;;;4.43;100.00;101746.94;4923278;29;20219;-75
2024/01/30 09:16:55;;;;;;;7.90;7.20;;;;;;;4.45;100.00;101751.25;4912884;29;20351;-76
2024/01/30 09:19:20;;;;;;;7.63;6.93;;;;;;;4.46;100.00;101753.91;4916407;29;20220;-75
2024/01/30 09:21:45;;;;;;;7.40;6.70;;;;;;;4.55;100.00;101750.78;4930608;29;20203;-76
2024/01/30 09:24:11;;;;;;;7.53;6.83;;;;;;;4.67;100.00;101755.53;4929248;29;20240;-77
2024/01/30 09:26:36;;;;;;;6.93;6.23;;;;;;;4.76;100.00;101766.19;4925095;29;20250;-76
2024/01/30 09:29:02;;;;;;;7.37;6.20;;;;;;;4.86;100.00;101762.25;4927687;29;20284;-75
2024/01/30 09:31:27;;;;;;;6.43;5.70;;;;;;;4.95;100.00;101764.28;4924680;29;20193;-75
2024/01/30 09:33:53;;;;;;;6.47;5.87;;;;;;;5.04;100.00;101759.53;4927437;29;20274;-74
2024/01/30 09:36:19;;;;;;;6.63;5.93;;;;;;;5.14;100.00;101768.44;4919330;29;20594;-76
2024/01/30 09:38:45;;;;;;;6.77;5.67;;;;;;;5.24;100.00;101772.22;4925501;29;20192;-75
2024/01/30 09:41:11;;;;;;;6.83;6.23;;;;;;;5.35;100.00;101760.66;4926446;29;20215;-75
2024/01/30 09:43:38;;;;;;;8.33;7.53;;;;;;;5.49;100.00;101756.00;4928466;29;20274;-76
2024/01/30 09:46:05;;;;;;;9.17;7.30;;;;;;;5.59;100.00;101755.53;4922672;29;20830;-75
2024/01/30 09:48:31;;;;;;;8.60;7.33;;;;;;;5.71;100.00;101759.34;4930508;29;20292;-77
2024/01/30 09:50:57;;;;;;;7.53;6.83;;;;;;;5.82;100.00;101755.44;4922990;29;20218;-76
2024/01/30 09:53:23;;;;;;;7.90;7.10;;;;;;;5.93;100.00;101755.81;4926286;29;20280;-75
2024/01/30 09:55:50;;;;;;;7.93;7.13;;;;;;;6.03;100.00;101757.91;4926591;29;20723;-76
2024/01/30 09:58:16;;;;;;;8.13;7.33;;;;;;;6.13;100.00;101760.75;4928372;29;20229;-76
2024/01/30 10:00:42;;;;;;;7.63;6.93;;;;;;;6.22;100.00;101755.94;4925267;29;20242;-76
2024/01/30 10:03:08;;;;;;;7.83;7.03;;;;;;;6.32;100.00;101755.41;4916184;29;20273;-77
2024/01/30 10:05:37;;;;;;;9.03;8.13;;;;;;;6.43;100.00;101765.19;4911569;29;20223;-76
2024/01/30 10:08:06;;;;;;;8.07;7.27;;;;;;;6.54;100.00;101763.81;4913702;29;20199;-75
2024/01/30 10:10:31;;;;;;;9.07;8.27;;;;;;;6.66;100.00;101763.31;4926106;29;20761;-76
2024/01/30 10:12:57;;;;;;;9.20;8.37;;;;;;;6.77;100.00;101773.94;4930065;29;20275;-75
2024/01/30 10:15:23;;;;;;;10.47;9.30;;;;;;;6.90;100.00;101777.75;4929392;29;20201;-74
2024/01/30 10:17:49;;;;;;;10.77;9.73;;;;;;;7.00;100.00;101772.03;4928087;29;20194;-76
2024/01/30 10:20:14;;;;;;;8.93;8.10;;;;;;;7.10;100.00;101765.47;4927357;29;20697;-76
2024/01/30 10:22:43;;;;;;;9.40;8.40;;;;;;;7.22;100.00;101770.97;4925605;29;20195;-76
2024/01/30 10:25:09;;;;;;;10.63;9.53;;;;;;;7.34;100.00;101780.75;4928282;29;20214;-75
2024/01/30 10:27:35;;;;;;;9.43;8.47;;;;;;;7.43;100.00;101783.59;4927377;29;20223;-75
2024/01/30 10:30:00;;;;;;;9.97;8.97;;;;;;;7.56;100.00;101787.38;4926167;29;21014;-75
2024/01/30 10:32:25;;;;;;;10.03;9.03;;;;;;;7.65;100.00;101791.91;4923687;29;20263;-75
2024/01/30 10:34:51;;;;;;;10.20;9.10;;;;;;;7.75;100.00;101785.31;4910158;29;20198;-77
2024/01/30 10:37:18;;;;;;;9.30;8.40;;;;;;;7.85;100.00;101792.47;4928831;29;20689;-76
2024/01/30 10:39:45;;;;;;;9.03;8.23;;;;;;;7.97;100.00;101775.56;4924250;29;20215;-75
2024/01/30 10:42:17;;;;;;;9.37;8.50;;;;;;;8.06;100.00;101773.22;4926070;29;20630;-76
2024/01/30 10:44:53;;;;;;;8.97;8.17;;;;;;;8.18;100.00;101760.63;4929039;29;20226;-76
2024/01/30 10:47:27;;;;;;;8.80;7.90;;;;;;;8.34;100.00;101768.75;4921686;29;20255;-75
2024/01/30 10:49:54;;;;;;;8.33;7.57;;;;;;;8.42;100.00;101774.94;4927198;29;20211;-75
2024/01/30 10:52:20;;;;;;;8.67;7.77;;;;;;;8.47;100.00;101762.19;4919928;29;20180;-75
2024/01/30 10:54:47;;;;;;;8.87;8.07;;;;;;;8.52;100.00;101766.66;4945106;29;20183;-74
2024/01/30 10:57:15;;;;;;;8.90;8.20;;;;;;;8.59;100.00;101769.34;4933916;29;20176;-76
2024/01/30 10:59:41;;;;;;;8.70;8.00;;;;;;;8.63;100.00;101763.44;4916662;29;20322;-78
2024/01/30 11:02:07;;;;;;;8.97;8.07;;;;;;;8.71;100.00;101772.22;4927327;29;20207;-75
2024/01/30 11:04:41;;;;;;;8.63;7.77;;;;;;;8.79;100.00;101754.31;4921287;29;20589;-76
2024/01/30 11:07:16;;;;;;;8.10;7.33;;;;;;;8.81;100.00;101750.94;4929902;29;20711;-76
2024/01/30 11:09:48;;;;;;;10.43;8.23;;;;;;;8.85;100.00;101749.28;4931824;29;20216;-75
2024/01/30 11:12:13;;;;;;;9.13;8.27;;;;;;;8.83;100.00;101738.94;4938306;29;20690;-75
2024/01/30 11:14:40;;;;;;;8.00;7.40;;;;;;;8.83;100.00;101751.84;4935125;29;20192;-75